createdAt,value
2019-03-29T00:02:22.082Z,50.10
2019-03-29T00:04:51.178Z,50.00
2019-03-29T00:07:20.249Z,49.90
2019-03-29T00:09:49.391Z,50.10
2019-03-29T00:12:18.748Z,50.10
2019-03-29T00:14:47.842Z,50.10
2019-03-29T00:17:17.991Z,50.00
2019-03-29T00:19:47.510Z,50.00
2019-03-29T00:22:16.869Z,50.10
2019-03-29T00:24:45.949Z,50.00
2019-03-29T00:27:15.038Z,50.00
2019-03-29T00:29:44.122Z,49.90
2019-03-29T00:32:13.237Z,50.00
2019-03-29T00:34:42.323Z,50.10
2019-03-29T00:37:11.429Z,50.20
2019-03-29T00:39:40.995Z,50.30
2019-03-29T00:42:10.169Z,50.40
2019-03-29T00:44:39.325Z,50.30
2019-03-29T00:47:08.910Z,50.30
2019-03-29T00:49:38.014Z,50.30
2019-03-29T00:52:07.165Z,50.40
2019-03-29T00:54:36.259Z,50.30
2019-03-29T00:57:05.562Z,50.30
2019-03-29T00:59:34.924Z,50.40
2019-03-29T01:02:04.079Z,50.30
2019-03-29T01:04:33.175Z,50.20
2019-03-29T01:07:02.484Z,50.10
2019-03-29T01:09:31.584Z,50.20
2019-03-29T01:12:00.927Z,50.30
2019-03-29T01:14:30.302Z,50.20
2019-03-29T01:16:59.475Z,50.20
2019-03-29T01:19:29.211Z,50.30
2019-03-29T01:21:59.250Z,50.30
2019-03-29T01:24:28.338Z,50.30
2019-03-29T01:26:57.518Z,50.20
2019-03-29T01:29:26.845Z,50.10
2019-03-29T01:31:55.940Z,50.00
2019-03-29T01:34:25.274Z,50.10
2019-03-29T01:36:54.648Z,50.20
2019-03-29T01:39:23.961Z,50.20
2019-03-29T01:41:53.303Z,50.20
2019-03-29T01:44:22.393Z,50.20
2019-03-29T01:46:51.502Z,50.30
2019-03-29T01:49:20.822Z,50.30
2019-03-29T01:51:50.135Z,50.40
2019-03-29T01:54:19.233Z,50.40
2019-03-29T01:56:48.389Z,50.50
2019-03-29T01:59:17.483Z,50.50
2019-03-29T02:01:46.561Z,50.40
2019-03-29T02:04:15.661Z,50.40
2019-03-29T02:06:45.684Z,50.30
2019-03-29T02:09:14.925Z,50.30
2019-03-29T02:11:44.232Z,50.40
2019-03-29T02:14:13.574Z,50.40
2019-03-29T02:16:42.645Z,50.30
2019-03-29T02:19:12.006Z,50.20
2019-03-29T02:21:41.334Z,50.30
2019-03-29T02:24:10.930Z,50.30
2019-03-29T02:26:40.078Z,50.20
2019-03-29T02:29:09.235Z,50.30
2019-03-29T02:31:41.931Z,50.20
2019-03-29T02:34:09.204Z,50.30
2019-03-29T02:36:38.366Z,50.40
2019-03-29T02:39:07.697Z,50.40
2019-03-29T02:41:37.069Z,50.40
2019-03-29T02:44:06.583Z,50.40
2019-03-29T02:46:36.701Z,50.40
2019-03-29T02:49:05.778Z,50.30
2019-03-29T02:51:34.871Z,50.30
2019-03-29T02:54:03.958Z,50.30
2019-03-29T02:56:33.374Z,50.30
2019-03-29T02:59:02.751Z,50.20
2019-03-29T03:01:32.174Z,50.20
2019-03-29T03:04:01.322Z,50.20
2019-03-29T03:06:30.479Z,50.30
2019-03-29T03:09:13.083Z,50.40
2019-03-29T03:11:30.444Z,50.40
2019-03-29T03:13:59.543Z,50.40
2019-03-29T03:16:28.690Z,50.40
2019-03-29T03:18:58.026Z,50.40
2019-03-29T03:21:27.390Z,50.40
2019-03-29T03:23:56.817Z,50.50
2019-03-29T03:26:26.205Z,50.40
2019-03-29T03:28:55.292Z,50.40
2019-03-29T03:31:24.389Z,50.40
2019-03-29T03:33:53.518Z,50.40
2019-03-29T03:36:23.090Z,50.40
2019-03-29T03:38:52.152Z,50.40
2019-03-29T03:41:21.247Z,50.40
2019-03-29T03:43:50.318Z,50.50
2019-03-29T03:46:19.425Z,50.50
2019-03-29T03:48:49.059Z,50.50
2019-03-29T03:51:18.138Z,50.40
2019-03-29T03:53:47.238Z,50.30
2019-03-29T03:56:17.329Z,50.40
2019-03-29T03:58:46.430Z,50.50
2019-03-29T04:01:15.523Z,50.40
2019-03-29T04:03:44.618Z,50.40
2019-03-29T04:06:13.702Z,50.50
2019-03-29T04:08:43.774Z,50.40
2019-03-29T04:11:13.091Z,50.40
2019-03-29T04:13:42.258Z,50.30
2019-03-29T04:16:11.355Z,50.20
2019-03-29T04:18:40.743Z,50.20
2019-03-29T04:21:09.845Z,50.20
2019-03-29T04:23:39.158Z,50.30
2019-03-29T04:26:08.253Z,50.40
2019-03-29T04:28:37.355Z,50.50
2019-03-29T04:31:06.440Z,50.50
2019-03-29T04:33:35.816Z,50.40
2019-03-29T04:36:04.978Z,50.40
2019-03-29T04:38:34.067Z,50.50
2019-03-29T04:41:03.472Z,50.50
2019-03-29T04:43:32.860Z,50.50
2019-03-29T04:46:01.982Z,50.50
2019-03-29T04:48:31.054Z,50.50
2019-03-29T04:51:00.449Z,50.50
2019-03-29T04:53:30.023Z,50.50
2019-03-29T04:55:59.617Z,50.50
2019-03-29T04:58:28.784Z,50.40
2019-03-29T05:00:58.359Z,50.40
2019-03-29T05:03:27.761Z,50.30
2019-03-29T05:05:56.909Z,50.20
2019-03-29T05:08:26.863Z,50.30
2019-03-29T05:10:56.659Z,50.30
2019-03-29T05:13:26.305Z,50.30
2019-03-29T05:15:55.406Z,50.30
2019-03-29T05:18:24.751Z,50.30
2019-03-29T05:20:54.427Z,50.30
2019-03-29T05:23:23.846Z,50.40
2019-03-29T05:25:53.166Z,50.40
2019-03-29T05:28:22.265Z,50.30
2019-03-29T05:30:51.337Z,50.30
2019-03-29T05:33:20.483Z,50.30
2019-03-29T05:35:49.585Z,50.40
2019-03-29T05:38:18.747Z,50.40
2019-03-29T05:40:47.817Z,50.50
2019-03-29T05:43:16.932Z,50.50
2019-03-29T05:45:46.237Z,50.40
2019-03-29T05:48:15.313Z,50.40
2019-03-29T05:50:44.678Z,50.40
2019-03-29T05:53:13.802Z,50.50
2019-03-29T05:55:42.925Z,50.40
2019-03-29T05:58:12.055Z,50.40
2019-03-29T06:00:41.394Z,50.50
2019-03-29T06:03:10.551Z,50.50
2019-03-29T06:05:39.898Z,50.50
2019-03-29T06:08:08.988Z,50.40
2019-03-29T06:10:48.165Z,50.40
2019-03-29T06:13:09.158Z,50.30
2019-03-29T06:15:38.262Z,50.30
2019-03-29T06:18:07.355Z,50.30
2019-03-29T06:20:36.490Z,50.20
2019-03-29T06:23:05.606Z,50.30
2019-03-29T06:25:34.749Z,50.30
2019-03-29T06:28:03.933Z,50.40
2019-03-29T06:30:33.061Z,50.30
2019-03-29T06:33:02.177Z,50.20
2019-03-29T06:35:36.195Z,50.10
2019-03-29T06:38:06.879Z,50.10
2019-03-29T06:40:36.026Z,50.10
2019-03-29T06:43:05.161Z,50.10
2019-03-29T06:45:46.810Z,50.10
2019-03-29T06:48:05.079Z,50.20
2019-03-29T06:50:34.287Z,50.10
2019-03-29T06:53:03.398Z,50.30
2019-03-29T06:55:32.732Z,50.10
2019-03-29T06:58:01.847Z,50.20
2019-03-29T07:00:30.926Z,50.10
2019-03-29T07:02:59.997Z,50.20
2019-03-29T07:05:29.107Z,50.20
2019-03-29T07:07:58.179Z,50.20
2019-03-29T07:10:27.261Z,50.20
2019-03-29T07:12:56.714Z,50.20
2019-03-29T07:15:26.285Z,50.10
2019-03-29T07:17:55.645Z,50.00
2019-03-29T07:20:24.754Z,50.20
2019-03-29T07:22:53.915Z,50.30
2019-03-29T07:25:23.010Z,50.10
2019-03-29T07:27:52.587Z,50.00
2019-03-29T07:30:22.141Z,49.90
2019-03-29T07:32:51.223Z,50.00
2019-03-29T07:35:20.562Z,49.80
2019-03-29T07:37:49.651Z,49.80
2019-03-29T07:40:18.734Z,50.00
2019-03-29T07:42:47.834Z,49.90
2019-03-29T07:45:17.174Z,49.70
2019-03-29T07:47:46.262Z,49.60
2019-03-29T07:50:15.337Z,49.60
2019-03-29T07:52:44.770Z,49.70
2019-03-29T07:55:13.918Z,49.60
2019-03-29T07:57:43.018Z,49.70
2019-03-29T08:00:12.508Z,49.70
2019-03-29T08:02:41.649Z,49.80
2019-03-29T08:05:10.759Z,49.70
2019-03-29T08:07:40.158Z,50.00
2019-03-29T08:10:23.603Z,49.90
2019-03-29T08:12:40.802Z,49.90
2019-03-29T08:15:10.827Z,50.00
2019-03-29T08:17:40.153Z,50.70
2019-03-29T08:20:37.388Z,50.30
2019-03-29T08:22:40.172Z,50.40
2019-03-29T08:25:09.394Z,50.40
2019-03-29T08:27:38.486Z,50.40
2019-03-29T08:30:07.798Z,50.30
2019-03-29T08:32:37.311Z,50.30
2019-03-29T08:35:06.594Z,50.40
2019-03-29T08:37:35.690Z,50.40
2019-03-29T08:40:05.184Z,50.50
2019-03-29T08:42:34.380Z,50.70
2019-03-29T08:45:03.497Z,50.60
2019-03-29T08:47:32.629Z,50.60
2019-03-29T08:50:01.742Z,50.80
2019-03-29T08:52:30.822Z,51.10
2019-03-29T08:55:00.412Z,50.90
2019-03-29T08:57:29.530Z,50.90
2019-03-29T08:59:58.866Z,50.40
2019-03-29T09:02:29.705Z,50.50
2019-03-29T09:04:59.337Z,50.30
2019-03-29T09:07:28.688Z,50.50
2019-03-29T09:09:57.780Z,50.20
2019-03-29T09:12:26.850Z,50.10
2019-03-29T09:14:56.332Z,50.10
2019-03-29T09:17:25.503Z,50.20
2019-03-29T09:19:54.593Z,50.00
2019-03-29T09:22:23.952Z,49.90
2019-03-29T09:24:53.202Z,49.70
2019-03-29T09:27:22.305Z,49.40
2019-03-29T09:29:51.638Z,49.50
2019-03-29T09:32:20.744Z,49.20
2019-03-29T09:34:50.091Z,49.30
2019-03-29T09:37:19.218Z,49.30
2019-03-29T09:39:48.468Z,49.10
2019-03-29T09:42:28.151Z,49.10
2019-03-29T09:44:48.374Z,49.00
2019-03-29T09:47:17.534Z,49.10
2019-03-29T09:49:46.717Z,49.20
2019-03-29T09:52:15.810Z,49.20
2019-03-29T09:54:44.898Z,49.20
2019-03-29T09:57:15.544Z,49.30
2019-03-29T09:59:45.403Z,49.40
2019-03-29T10:02:14.485Z,49.20
2019-03-29T10:04:43.612Z,49.20
2019-03-29T10:07:12.929Z,49.20
2019-03-29T10:09:42.019Z,49.20
2019-03-29T10:12:11.113Z,49.20
2019-03-29T10:14:40.202Z,49.30
2019-03-29T10:17:09.281Z,49.20
2019-03-29T10:19:38.399Z,49.30
2019-03-29T10:22:07.481Z,49.40
2019-03-29T10:24:36.549Z,49.30
2019-03-29T10:27:05.625Z,49.20
2019-03-29T10:29:34.957Z,49.20
2019-03-29T10:32:08.966Z,49.20
2019-03-29T10:34:37.405Z,49.30
2019-03-29T10:37:05.655Z,49.20
2019-03-29T10:39:35.784Z,49.30
2019-03-29T10:42:05.110Z,49.10
2019-03-29T10:44:34.234Z,49.10
2019-03-29T10:47:03.595Z,49.20
2019-03-29T10:49:32.677Z,49.20
2019-03-29T10:52:01.781Z,49.00
2019-03-29T10:54:30.862Z,49.20
2019-03-29T10:57:00.240Z,49.10
2019-03-29T10:59:29.642Z,49.10
2019-03-29T11:01:58.973Z,49.10
2019-03-29T11:04:31.550Z,49.10
2019-03-29T11:06:59.092Z,49.20
2019-03-29T11:09:28.205Z,49.10
2019-03-29T11:11:57.305Z,49.20
2019-03-29T11:14:26.459Z,49.10
2019-03-29T11:16:55.549Z,49.10
2019-03-29T11:19:24.906Z,49.60
2019-03-29T11:21:54.001Z,49.10
2019-03-29T11:24:23.085Z,49.10
2019-03-29T11:26:52.418Z,49.00
2019-03-29T11:29:21.741Z,49.20
2019-03-29T11:31:50.899Z,49.10
2019-03-29T11:34:21.116Z,49.00
2019-03-29T11:36:52.646Z,49.10
2019-03-29T11:39:21.137Z,49.40
2019-03-29T11:41:50.521Z,49.00
2019-03-29T11:44:19.586Z,48.90
2019-03-29T11:46:48.679Z,48.90
2019-03-29T11:49:17.841Z,48.90
2019-03-29T11:51:47.181Z,48.90
2019-03-29T11:54:16.252Z,49.10
2019-03-29T11:56:47.620Z,49.10
2019-03-29T11:59:16.272Z,49.00
2019-03-29T12:01:45.353Z,48.90
2019-03-29T12:04:14.433Z,49.10
2019-03-29T12:06:43.816Z,49.10
2019-03-29T12:09:12.981Z,49.10
2019-03-29T12:11:42.333Z,49.00
2019-03-29T12:14:11.459Z,49.00
2019-03-29T12:16:41.021Z,48.80
2019-03-29T12:19:10.089Z,48.70
2019-03-29T12:21:39.181Z,48.80
2019-03-29T12:24:08.504Z,48.90
2019-03-29T12:26:37.590Z,48.70
2019-03-29T12:29:06.929Z,48.80
2019-03-29T12:31:36.177Z,48.90
2019-03-29T12:34:05.245Z,48.80
2019-03-29T12:36:34.336Z,48.90
2019-03-29T12:39:04.997Z,48.70
2019-03-29T12:41:34.096Z,48.70
2019-03-29T12:44:03.229Z,48.70
2019-03-29T12:46:32.563Z,48.80
2019-03-29T12:49:01.673Z,48.80
2019-03-29T12:51:31.254Z,48.80
2019-03-29T12:54:00.325Z,48.80
2019-03-29T12:56:29.399Z,48.90
2019-03-29T12:58:58.746Z,48.80
2019-03-29T13:01:38.534Z,48.90
2019-03-29T13:03:58.633Z,49.00
2019-03-29T13:06:28.657Z,49.10
2019-03-29T13:08:58.016Z,49.00
2019-03-29T13:11:27.162Z,49.00
2019-03-29T13:14:09.564Z,49.00
2019-03-29T13:16:28.389Z,49.10
2019-03-29T13:18:57.505Z,49.10
2019-03-29T13:21:26.600Z,49.00
2019-03-29T13:23:55.665Z,49.10
2019-03-29T13:26:24.762Z,49.20
2019-03-29T13:28:54.206Z,49.40
2019-03-29T13:31:23.361Z,49.20
2019-03-29T13:33:52.695Z,49.20
2019-03-29T13:36:22.009Z,49.20
2019-03-29T13:38:51.077Z,49.20
2019-03-29T13:41:20.429Z,49.20
2019-03-29T13:43:49.574Z,49.20
2019-03-29T13:46:18.666Z,49.20
2019-03-29T13:48:47.746Z,49.60
2019-03-29T13:51:16.836Z,49.30
2019-03-29T13:53:45.909Z,49.50
2019-03-29T13:56:15.013Z,49.40
2019-03-29T13:58:44.334Z,49.30
2019-03-29T14:01:13.654Z,49.40
2019-03-29T14:03:42.838Z,49.50
2019-03-29T14:06:11.917Z,49.50
2019-03-29T14:08:41.230Z,49.50
2019-03-29T14:11:10.293Z,49.70
2019-03-29T14:13:39.617Z,49.80
2019-03-29T14:16:08.699Z,49.80
2019-03-29T14:18:38.255Z,49.60
2019-03-29T14:21:07.345Z,49.50
2019-03-29T14:23:36.413Z,49.30
2019-03-29T14:26:05.497Z,49.30
2019-03-29T14:28:34.569Z,49.30
2019-03-29T14:31:03.654Z,49.20
2019-03-29T14:33:32.731Z,49.30
2019-03-29T14:36:01.821Z,49.20
2019-03-29T14:38:30.897Z,49.10
2019-03-29T14:40:59.985Z,49.20
2019-03-29T14:43:29.065Z,49.20
2019-03-29T14:45:58.150Z,49.30
2019-03-29T14:48:27.217Z,49.10
2019-03-29T14:50:56.289Z,49.20
2019-03-29T14:53:25.386Z,49.30
2019-03-29T14:55:54.457Z,49.20
2019-03-29T14:58:23.541Z,49.10
2019-03-29T15:00:52.618Z,49.10
2019-03-29T15:03:21.693Z,49.00
2019-03-29T15:05:50.765Z,49.00
2019-03-29T15:08:19.862Z,49.00
2019-03-29T15:10:48.937Z,48.90
2019-03-29T15:13:18.282Z,48.80
2019-03-29T15:15:47.361Z,48.90
2019-03-29T15:18:16.498Z,48.80
2019-03-29T15:20:53.487Z,48.90
2019-03-29T15:23:16.508Z,48.80
2019-03-29T15:25:46.073Z,48.90
2019-03-29T15:28:15.145Z,49.00
2019-03-29T15:30:44.242Z,49.10
2019-03-29T15:33:13.597Z,49.00
2019-03-29T15:35:42.684Z,49.00
2019-03-29T15:38:11.757Z,49.00
2019-03-29T15:40:41.252Z,48.90
2019-03-29T15:43:10.381Z,49.00
2019-03-29T15:45:39.547Z,49.00
2019-03-29T15:48:08.693Z,48.90
2019-03-29T15:50:38.006Z,48.90
2019-03-29T15:53:07.326Z,48.80
2019-03-29T15:55:36.406Z,48.90
2019-03-29T15:58:05.536Z,48.80
2019-03-29T16:00:34.879Z,48.90
2019-03-29T16:03:03.946Z,48.90
2019-03-29T16:05:33.031Z,48.80
2019-03-29T16:08:02.136Z,48.80
2019-03-29T16:10:31.502Z,48.80
2019-03-29T16:13:00.664Z,48.80
2019-03-29T16:15:36.417Z,48.80
2019-03-29T16:18:00.598Z,48.80
2019-03-29T16:20:29.942Z,48.80
2019-03-29T16:22:59.046Z,48.80
2019-03-29T16:25:28.113Z,48.90
2019-03-29T16:27:57.190Z,48.90
2019-03-29T16:30:26.769Z,48.90
2019-03-29T16:32:56.094Z,48.90
2019-03-29T16:35:25.251Z,49.10
2019-03-29T16:37:57.290Z,49.00
2019-03-29T16:40:25.406Z,49.10
2019-03-29T16:42:54.473Z,49.00
2019-03-29T16:45:23.557Z,49.00
2019-03-29T16:47:53.000Z,49.60
2019-03-29T16:50:22.161Z,49.00
2019-03-29T16:52:51.232Z,49.00
2019-03-29T16:55:20.329Z,49.00
2019-03-29T16:57:49.420Z,49.00
2019-03-29T17:00:18.803Z,49.00
2019-03-29T17:02:47.977Z,49.10
2019-03-29T17:05:17.054Z,49.10
2019-03-29T17:07:46.133Z,49.10
2019-03-29T17:10:15.224Z,49.20
2019-03-29T17:12:44.624Z,49.30
2019-03-29T17:15:14.602Z,49.20
2019-03-29T17:17:43.698Z,49.20
2019-03-29T17:20:12.769Z,49.30
2019-03-29T17:22:43.509Z,49.20
2019-03-29T17:25:13.076Z,49.30
2019-03-29T17:27:42.152Z,49.20
2019-03-29T17:30:12.938Z,49.30
2019-03-29T17:32:42.009Z,49.30
2019-03-29T17:35:11.098Z,49.30
2019-03-29T17:37:40.177Z,49.20
2019-03-29T17:40:09.507Z,49.30
2019-03-29T17:42:38.817Z,49.40
2019-03-29T17:45:07.974Z,49.40
2019-03-29T17:47:37.119Z,49.40
2019-03-29T17:50:06.629Z,49.40
2019-03-29T17:52:35.782Z,49.40
2019-03-29T17:55:05.257Z,49.40
2019-03-29T17:57:34.340Z,49.40
2019-03-29T18:00:04.178Z,49.40
2019-03-29T18:02:33.526Z,49.40
2019-03-29T18:05:02.826Z,49.50
2019-03-29T18:07:31.918Z,49.50
2019-03-29T18:10:00.988Z,49.50
2019-03-29T18:12:30.079Z,49.60
2019-03-29T18:14:59.155Z,49.50
2019-03-29T18:17:28.270Z,49.50
2019-03-29T18:19:57.377Z,49.60
2019-03-29T18:22:26.806Z,49.50
2019-03-29T18:24:55.905Z,49.50
2019-03-29T18:27:25.241Z,49.50
2019-03-29T18:29:54.833Z,49.50
2019-03-29T18:32:23.916Z,49.50
2019-03-29T18:34:53.049Z,49.50
2019-03-29T18:37:22.144Z,49.60
2019-03-29T18:39:54.753Z,49.60
2019-03-29T18:42:22.282Z,49.50
2019-03-29T18:44:51.360Z,49.50
2019-03-29T18:47:20.681Z,49.50
2019-03-29T18:49:49.753Z,49.60
2019-03-29T18:52:18.841Z,49.50
2019-03-29T18:54:47.960Z,49.70
2019-03-29T18:57:17.057Z,49.70
2019-03-29T18:59:46.127Z,49.70
2019-03-29T19:02:15.229Z,49.60
2019-03-29T19:04:44.313Z,49.60
2019-03-29T19:07:13.405Z,49.60
2019-03-29T19:09:42.514Z,49.60
2019-03-29T19:12:11.678Z,49.60
2019-03-29T19:14:41.794Z,49.60
2019-03-29T19:17:11.001Z,49.80
2019-03-29T19:19:40.076Z,50.20
2019-03-29T19:22:09.206Z,49.80
2019-03-29T19:24:38.282Z,49.70
2019-03-29T19:27:07.353Z,49.80
2019-03-29T19:29:36.705Z,49.80
2019-03-29T19:32:06.282Z,49.60
2019-03-29T19:34:35.642Z,49.70
2019-03-29T19:37:04.734Z,49.70
2019-03-29T19:39:34.094Z,49.70
2019-03-29T19:42:03.174Z,49.80
2019-03-29T19:44:32.254Z,49.70
2019-03-29T19:47:12.749Z,49.70
2019-03-29T19:49:32.154Z,49.80
2019-03-29T19:52:01.483Z,49.80
2019-03-29T19:54:30.568Z,49.70
2019-03-29T19:56:59.657Z,49.60
2019-03-29T19:59:28.986Z,49.70
2019-03-29T20:01:58.089Z,49.80
2019-03-29T20:04:27.186Z,49.90
2019-03-29T20:06:56.273Z,49.80
2019-03-29T20:09:25.348Z,49.80
2019-03-29T20:11:54.441Z,49.80
2019-03-29T20:14:23.750Z,49.80
2019-03-29T20:16:55.203Z,49.70
2019-03-29T20:19:24.171Z,49.70
2019-03-29T20:21:53.374Z,49.70
2019-03-29T20:24:22.828Z,49.80
2019-03-29T20:26:52.170Z,49.70
2019-03-29T20:29:21.258Z,49.70
2019-03-29T20:31:50.846Z,49.80
2019-03-29T20:34:20.217Z,49.80
2019-03-29T20:36:49.310Z,49.80
2019-03-29T20:39:18.698Z,49.80
2019-03-29T20:41:47.775Z,49.80
2019-03-29T20:44:17.113Z,49.80
2019-03-29T20:46:46.207Z,49.80
2019-03-29T20:49:15.306Z,49.90
2019-03-29T20:51:44.402Z,49.80
2019-03-29T20:54:13.578Z,49.80
2019-03-29T20:56:42.901Z,49.90
2019-03-29T20:59:11.996Z,49.80
2019-03-29T21:01:41.157Z,49.80
2019-03-29T21:04:10.229Z,49.80
2019-03-29T21:06:39.322Z,49.80
2019-03-29T21:09:08.715Z,50.10
2019-03-29T21:11:37.801Z,50.00
2019-03-29T21:14:06.865Z,50.10
2019-03-29T21:16:36.662Z,50.10
2019-03-29T21:19:05.758Z,50.00
2019-03-29T21:21:34.845Z,49.90
2019-03-29T21:24:04.224Z,49.90
2019-03-29T21:26:33.301Z,50.00
2019-03-29T21:29:02.391Z,50.20
2019-03-29T21:31:32.021Z,50.00
2019-03-29T21:34:01.090Z,50.00
2019-03-29T21:36:30.169Z,50.00
2019-03-29T21:38:59.250Z,50.10
2019-03-29T21:41:28.838Z,50.10
2019-03-29T21:43:57.922Z,50.00
2019-03-29T21:46:27.073Z,50.00
2019-03-29T21:48:56.153Z,50.00
2019-03-29T21:51:25.458Z,50.20
2019-03-29T21:53:54.798Z,50.20
2019-03-29T21:56:23.870Z,50.00
2019-03-29T21:58:52.949Z,50.10
2019-03-29T22:01:22.033Z,50.00
2019-03-29T22:03:51.118Z,50.00
2019-03-29T22:06:20.223Z,50.00
2019-03-29T22:08:49.637Z,49.90
2019-03-29T22:11:18.705Z,50.00
2019-03-29T22:13:47.807Z,50.00
2019-03-29T22:16:16.952Z,50.00
2019-03-29T22:18:46.253Z,50.00
2019-03-29T22:21:15.833Z,50.00
2019-03-29T22:23:45.154Z,49.90
2019-03-29T22:26:14.248Z,49.80
2019-03-29T22:28:43.589Z,49.90
2019-03-29T22:31:12.686Z,49.90
2019-03-29T22:33:41.770Z,49.90
2019-03-29T22:36:11.110Z,49.90
2019-03-29T22:38:40.189Z,50.10
2019-03-29T22:41:09.274Z,50.20
2019-03-29T22:43:38.586Z,50.20
2019-03-29T22:46:07.697Z,50.20
2019-03-29T22:48:51.105Z,50.20
2019-03-29T22:51:07.792Z,50.20
2019-03-29T22:53:37.130Z,50.10
2019-03-29T22:56:06.201Z,50.10
2019-03-29T22:58:35.286Z,50.10
2019-03-29T23:01:04.357Z,50.70
2019-03-29T23:03:33.689Z,50.30
2019-03-29T23:06:02.823Z,50.20
2019-03-29T23:08:31.913Z,50.10
2019-03-29T23:11:00.983Z,49.90
2019-03-29T23:13:30.081Z,49.80
2019-03-29T23:16:00.014Z,49.80
2019-03-29T23:18:29.086Z,49.90
2019-03-29T23:20:58.442Z,49.90
2019-03-29T23:23:27.518Z,50.00
2019-03-29T23:25:56.670Z,49.90
2019-03-29T23:28:25.993Z,50.00
2019-03-29T23:30:55.333Z,49.90
2019-03-29T23:33:24.409Z,49.90
2019-03-29T23:35:53.489Z,49.90
2019-03-29T23:38:22.561Z,49.90
2019-03-29T23:40:51.886Z,50.50
2019-03-29T23:43:20.965Z,50.10
2019-03-29T23:45:50.040Z,50.10
2019-03-29T23:48:19.382Z,50.10
2019-03-29T23:50:48.456Z,50.10
2019-03-29T23:53:17.782Z,50.00
2019-03-29T23:55:47.187Z,50.00
2019-03-29T23:58:16.327Z,50.00
